createdAt,value
2017-12-30T00:01:54.869Z,4.90
2017-12-30T00:04:23.256Z,4.33
2017-12-30T00:06:50.864Z,7.93
2017-12-30T00:09:19.236Z,8.70
2017-12-30T00:11:47.574Z,10.93
2017-12-30T00:14:15.178Z,3.93
2017-12-30T00:16:42.770Z,8.53
2017-12-30T00:19:11.113Z,11.43
2017-12-30T00:21:38.778Z,12.10
2017-12-30T00:24:06.653Z,9.40
2017-12-30T00:26:35.160Z,8.07
2017-12-30T00:29:02.753Z,10.73
2017-12-30T00:31:31.991Z,3.63
2017-12-30T00:34:00.133Z,11.87
2017-12-30T00:36:30.547Z,10.30
2017-12-30T00:39:00.792Z,7.33
2017-12-30T00:41:28.421Z,5.07
2017-12-30T00:43:57.586Z,12.63
2017-12-30T00:46:31.988Z,6.60
2017-12-30T00:48:59.549Z,8.43
2017-12-30T00:51:28.766Z,15.33
2017-12-30T00:53:58.832Z,9.27
2017-12-30T00:56:28.678Z,10.53
2017-12-30T00:58:56.866Z,9.40
2017-12-30T01:01:24.457Z,7.87
2017-12-30T01:03:53.146Z,10.93
2017-12-30T01:06:21.371Z,12.73
2017-12-30T01:08:49.811Z,9.83
2017-12-30T01:11:18.197Z,7.70
2017-12-30T01:13:47.019Z,10.43
2017-12-30T01:16:15.422Z,23.33
2017-12-30T01:18:43.561Z,11.33
2017-12-30T01:21:11.155Z,3.80
2017-12-30T01:23:38.911Z,10.00
2017-12-30T01:26:06.536Z,12.57
2017-12-30T01:28:34.066Z,8.50
2017-12-30T01:31:03.087Z,15.23
2017-12-30T01:33:31.431Z,7.17
2017-12-30T01:35:59.873Z,9.00
2017-12-30T01:38:28.271Z,11.23
2017-12-30T01:40:56.482Z,8.90
2017-12-30T01:43:24.052Z,8.90
2017-12-30T01:45:58.270Z,9.93
2017-12-30T01:48:28.994Z,7.37
2017-12-30T01:50:58.390Z,11.80
2017-12-30T01:53:28.997Z,12.30
2017-12-30T01:55:57.648Z,12.47
2017-12-30T01:58:26.189Z,14.00
2017-12-30T02:00:53.756Z,8.73
2017-12-30T02:03:22.045Z,21.50
2017-12-30T02:05:49.605Z,13.43
2017-12-30T02:08:18.580Z,5.37
2017-12-30T02:10:46.200Z,11.50
2017-12-30T02:13:14.645Z,15.17
2017-12-30T02:15:43.506Z,10.10
2017-12-30T02:18:11.046Z,19.17
2017-12-30T02:20:39.404Z,14.87
2017-12-30T02:23:07.719Z,15.20
2017-12-30T02:25:35.312Z,19.13
2017-12-30T02:28:04.807Z,12.47
2017-12-30T02:30:32.381Z,8.70
2017-12-30T02:32:59.955Z,8.83
2017-12-30T02:35:27.477Z,8.23
2017-12-30T02:37:55.026Z,30.13
2017-12-30T02:40:23.370Z,15.67
2017-12-30T02:42:51.771Z,7.00
2017-12-30T02:45:19.304Z,8.33
2017-12-30T02:47:46.995Z,14.70
2017-12-30T02:50:15.144Z,18.00
2017-12-30T02:52:44.716Z,14.07
2017-12-30T02:55:12.295Z,12.93
2017-12-30T02:57:39.840Z,17.67
2017-12-30T03:00:08.335Z,7.73
2017-12-30T03:02:35.933Z,14.40
2017-12-30T03:05:03.526Z,13.27
2017-12-30T03:07:32.036Z,18.47
2017-12-30T03:10:01.312Z,8.60
2017-12-30T03:12:28.867Z,14.97
2017-12-30T03:14:56.463Z,9.03
2017-12-30T03:17:24.955Z,11.67
2017-12-30T03:19:52.574Z,10.13
2017-12-30T03:22:20.888Z,18.40
2017-12-30T03:24:49.258Z,9.03
2017-12-30T03:27:16.819Z,16.40
2017-12-30T03:29:45.039Z,18.40
2017-12-30T03:32:13.636Z,20.47
2017-12-30T03:34:41.936Z,7.63
2017-12-30T03:37:09.510Z,14.43
2017-12-30T03:39:37.767Z,7.00
2017-12-30T03:42:06.238Z,8.30
2017-12-30T03:44:36.380Z,17.60
2017-12-30T03:47:05.442Z,10.60
2017-12-30T03:49:33.077Z,16.90
2017-12-30T03:52:00.681Z,23.53
2017-12-30T03:54:28.285Z,9.67
2017-12-30T03:56:56.493Z,13.70
2017-12-30T03:59:24.916Z,10.07
2017-12-30T04:01:54.147Z,9.70
2017-12-30T04:04:22.682Z,9.37
2017-12-30T04:06:50.226Z,13.63
2017-12-30T04:09:18.776Z,15.90
2017-12-30T04:11:46.311Z,13.93
2017-12-30T04:14:15.361Z,12.30
2017-12-30T04:16:44.507Z,14.90
2017-12-30T04:19:15.334Z,8.33
2017-12-30T04:21:47.461Z,4.00
2017-12-30T04:24:15.819Z,7.30
2017-12-30T04:26:44.842Z,7.20
2017-12-30T04:29:12.412Z,3.60
2017-12-30T04:31:39.945Z,6.47
2017-12-30T04:34:08.305Z,5.50
2017-12-30T04:36:35.838Z,7.57
2017-12-30T04:39:03.400Z,8.00
2017-12-30T04:41:31.700Z,5.07
2017-12-30T04:44:01.307Z,5.67
2017-12-30T04:46:29.622Z,5.60
2017-12-30T04:48:57.195Z,4.33
2017-12-30T04:51:25.567Z,6.30
2017-12-30T04:53:53.993Z,5.97
2017-12-30T04:56:21.531Z,3.70
2017-12-30T04:58:49.544Z,6.63
2017-12-30T05:01:17.078Z,5.50
2017-12-30T05:03:46.597Z,4.10
2017-12-30T05:06:15.762Z,4.30
2017-12-30T05:08:43.338Z,3.90
2017-12-30T05:11:10.871Z,3.50
2017-12-30T05:13:38.447Z,4.07
2017-12-30T05:16:05.972Z,3.27
2017-12-30T05:18:33.558Z,6.47
2017-12-30T05:21:01.815Z,4.10
2017-12-30T05:23:29.932Z,5.87
2017-12-30T05:25:57.455Z,3.40
2017-12-30T05:28:25.038Z,2.70
2017-12-30T05:30:52.584Z,2.63
2017-12-30T05:33:20.164Z,3.20
2017-12-30T05:35:48.523Z,5.33
2017-12-30T05:38:16.104Z,2.70
2017-12-30T05:40:46.259Z,3.43
2017-12-30T05:43:14.660Z,2.63
2017-12-30T05:45:43.054Z,2.67
2017-12-30T05:48:11.555Z,2.93
2017-12-30T05:50:39.100Z,2.97
2017-12-30T05:53:07.544Z,3.37
2017-12-30T05:55:35.918Z,3.20
2017-12-30T05:58:03.487Z,3.50
2017-12-30T06:00:31.895Z,3.43
2017-12-30T06:02:59.494Z,2.70
2017-12-30T06:05:27.023Z,4.90
2017-12-30T06:07:55.342Z,3.00
2017-12-30T06:10:23.682Z,3.30
2017-12-30T06:12:52.407Z,3.30
2017-12-30T06:15:19.994Z,19.57
2017-12-30T06:17:50.015Z,2.83
2017-12-30T06:20:18.371Z,4.03
2017-12-30T06:22:46.663Z,2.40
2017-12-30T06:25:15.196Z,4.50
2017-12-30T06:27:42.736Z,2.50
2017-12-30T06:30:11.232Z,3.77
2017-12-30T06:32:39.264Z,2.53
2017-12-30T06:35:06.846Z,3.13
2017-12-30T06:37:34.377Z,3.33
2017-12-30T06:40:02.049Z,3.20
2017-12-30T06:42:29.585Z,3.43
2017-12-30T06:44:57.150Z,3.60
2017-12-30T06:47:25.724Z,2.90
2017-12-30T06:49:53.306Z,3.30
2017-12-30T06:52:20.830Z,3.37
2017-12-30T06:54:48.959Z,3.97
2017-12-30T06:57:17.820Z,3.50
2017-12-30T06:59:45.403Z,3.20
2017-12-30T07:02:13.589Z,2.93
2017-12-30T07:04:41.187Z,3.40
2017-12-30T07:07:09.704Z,3.10
2017-12-30T07:09:37.290Z,3.17
2017-12-30T07:12:05.316Z,3.20
2017-12-30T07:14:32.897Z,2.73
2017-12-30T07:17:01.419Z,2.90
2017-12-30T07:19:28.989Z,2.87
2017-12-30T07:21:56.514Z,2.33
2017-12-30T07:24:24.856Z,2.70
2017-12-30T07:26:52.416Z,2.50
2017-12-30T07:29:20.699Z,2.90
2017-12-30T07:31:48.247Z,2.87
2017-12-30T07:34:17.441Z,2.50
2017-12-30T07:36:44.967Z,2.97
2017-12-30T07:39:13.333Z,3.23
2017-12-30T07:41:41.965Z,2.80
2017-12-30T07:44:10.347Z,2.60
2017-12-30T07:46:37.913Z,2.80
2017-12-30T07:49:05.442Z,2.40
2017-12-30T07:51:34.275Z,2.70
2017-12-30T07:54:01.841Z,2.43
2017-12-30T07:56:30.083Z,2.37
2017-12-30T07:58:57.662Z,2.37
2017-12-30T08:01:26.141Z,2.80
2017-12-30T08:03:53.736Z,2.77
2017-12-30T08:06:22.035Z,4.00
2017-12-30T08:08:49.612Z,2.70
2017-12-30T08:11:17.906Z,3.10
2017-12-30T08:13:47.184Z,2.70
2017-12-30T08:16:14.709Z,2.60
2017-12-30T08:18:42.308Z,2.80
2017-12-30T08:21:09.855Z,2.80
2017-12-30T08:23:37.438Z,2.87
2017-12-30T08:26:04.967Z,2.20
2017-12-30T08:28:33.090Z,2.27
2017-12-30T08:31:01.248Z,2.33
2017-12-30T08:33:30.576Z,2.87
2017-12-30T08:35:58.879Z,3.00
2017-12-30T08:38:26.447Z,2.87
2017-12-30T08:40:55.179Z,3.00
2017-12-30T08:43:23.394Z,3.57
2017-12-30T08:45:50.943Z,2.80
2017-12-30T08:48:18.506Z,2.60
2017-12-30T08:50:46.046Z,2.90
2017-12-30T08:53:14.479Z,2.60
2017-12-30T08:55:42.883Z,2.80
2017-12-30T08:58:11.218Z,2.80
2017-12-30T09:00:39.514Z,3.40
2017-12-30T09:03:07.087Z,2.47
2017-12-30T09:05:35.398Z,2.33
2017-12-30T09:08:04.209Z,2.37
2017-12-30T09:10:31.762Z,2.63
2017-12-30T09:12:59.330Z,2.80
2017-12-30T09:15:27.806Z,3.07
2017-12-30T09:17:56.154Z,3.33
2017-12-30T09:20:24.487Z,3.87
2017-12-30T09:22:52.065Z,3.20
2017-12-30T09:25:20.367Z,2.90
2017-12-30T09:27:48.702Z,3.60
2017-12-30T09:30:16.222Z,3.17
2017-12-30T09:32:45.344Z,3.40
2017-12-30T09:35:13.663Z,2.90
2017-12-30T09:37:41.230Z,3.23
2017-12-30T09:40:09.561Z,3.50
2017-12-30T09:42:37.835Z,2.73
2017-12-30T09:45:06.229Z,3.50
2017-12-30T09:47:36.249Z,3.17
2017-12-30T09:50:03.780Z,3.20
2017-12-30T09:52:32.115Z,3.20
2017-12-30T09:55:00.487Z,3.23
2017-12-30T09:57:28.020Z,3.27
2017-12-30T09:59:57.104Z,3.00
2017-12-30T10:02:25.471Z,3.20
2017-12-30T10:04:53.032Z,3.50
2017-12-30T10:07:21.414Z,3.77
2017-12-30T10:09:48.989Z,3.70
2017-12-30T10:12:17.031Z,3.67
2017-12-30T10:14:45.041Z,3.43
2017-12-30T10:17:12.581Z,3.50
2017-12-30T10:19:40.600Z,3.20
2017-12-30T10:22:08.908Z,3.23
2017-12-30T10:24:36.493Z,2.93
2017-12-30T10:27:04.046Z,3.00
2017-12-30T10:29:32.406Z,2.87
2017-12-30T10:32:00.829Z,2.83
2017-12-30T10:34:29.283Z,3.53
2017-12-30T10:36:56.911Z,3.50
2017-12-30T10:39:25.084Z,2.40
2017-12-30T10:41:53.612Z,3.20
2017-12-30T10:44:22.101Z,3.40
2017-12-30T10:46:49.662Z,3.60
2017-12-30T10:49:17.237Z,3.10
2017-12-30T10:51:44.768Z,2.87
2017-12-30T10:54:12.931Z,3.43
2017-12-30T10:56:40.607Z,3.30
2017-12-30T10:59:09.139Z,3.60
2017-12-30T11:01:38.277Z,2.83
2017-12-30T11:04:07.522Z,3.90
2017-12-30T11:06:36.051Z,3.50
2017-12-30T11:09:04.419Z,3.60
2017-12-30T11:11:31.948Z,3.30
2017-12-30T11:14:00.416Z,3.10
2017-12-30T11:16:28.902Z,3.30
2017-12-30T11:18:57.243Z,2.80
2017-12-30T11:21:25.538Z,3.10
2017-12-30T11:23:53.134Z,3.60
2017-12-30T11:26:23.458Z,3.30
2017-12-30T11:28:51.946Z,3.17
2017-12-30T11:31:20.267Z,3.47
2017-12-30T11:33:50.764Z,3.63
2017-12-30T11:36:22.809Z,4.00
2017-12-30T11:38:51.989Z,3.90
2017-12-30T11:41:21.487Z,3.67
2017-12-30T11:43:50.467Z,3.20
2017-12-30T11:46:18.904Z,2.93
2017-12-30T11:48:47.183Z,2.90
2017-12-30T11:51:15.629Z,2.90
2017-12-30T11:53:44.843Z,3.63
2017-12-30T11:56:13.159Z,3.20
2017-12-30T11:58:40.734Z,3.27
2017-12-30T12:01:08.267Z,3.57
2017-12-30T12:03:36.676Z,3.37
2017-12-30T12:06:04.219Z,3.53
2017-12-30T12:08:31.811Z,3.20
2017-12-30T12:11:00.981Z,2.83
2017-12-30T12:13:29.504Z,2.70
2017-12-30T12:15:58.950Z,3.30
2017-12-30T12:18:27.166Z,2.80
2017-12-30T12:20:55.892Z,2.60
2017-12-30T12:23:23.463Z,3.10
2017-12-30T12:25:51.748Z,3.23
2017-12-30T12:28:19.326Z,2.70
2017-12-30T12:30:46.846Z,3.00
2017-12-30T12:33:15.175Z,2.80
2017-12-30T12:35:43.491Z,2.90
2017-12-30T12:38:11.082Z,3.27
2017-12-30T12:40:40.286Z,2.60
2017-12-30T12:43:07.859Z,2.90
2017-12-30T12:45:37.141Z,3.37
2017-12-30T12:48:04.717Z,3.37
2017-12-30T12:50:32.256Z,3.60
2017-12-30T12:53:00.670Z,3.53
2017-12-30T12:55:28.204Z,3.37
2017-12-30T12:57:56.534Z,3.50
2017-12-30T13:00:24.096Z,2.90
2017-12-30T13:02:52.424Z,3.30
2017-12-30T13:05:19.964Z,2.97
2017-12-30T13:07:48.375Z,2.83
2017-12-30T13:10:15.947Z,3.00
2017-12-30T13:12:43.531Z,3.47
2017-12-30T13:15:11.989Z,3.27
2017-12-30T13:17:40.267Z,3.37
2017-12-30T13:20:09.291Z,3.73
2017-12-30T13:22:37.756Z,2.87
2017-12-30T13:25:06.885Z,3.40
2017-12-30T13:27:34.488Z,3.37
2017-12-30T13:30:02.564Z,3.00
2017-12-30T13:32:30.646Z,3.70
2017-12-30T13:34:58.312Z,3.37
2017-12-30T13:37:25.913Z,3.30
2017-12-30T13:39:53.525Z,3.40
2017-12-30T13:42:21.690Z,3.33
2017-12-30T13:44:50.134Z,3.00
2017-12-30T13:47:17.707Z,3.80
2017-12-30T13:49:45.305Z,3.90
2017-12-30T13:52:12.876Z,3.20
2017-12-30T13:54:41.018Z,3.67
2017-12-30T13:57:08.546Z,3.37
2017-12-30T13:59:36.158Z,3.43
2017-12-30T14:02:04.454Z,3.50
2017-12-30T14:04:32.843Z,3.50
2017-12-30T14:07:01.181Z,3.10
2017-12-30T14:09:28.756Z,3.20
2017-12-30T14:11:56.295Z,3.00
2017-12-30T14:14:24.630Z,3.60
2017-12-30T14:16:52.970Z,3.53
2017-12-30T14:19:22.012Z,3.97
2017-12-30T14:21:49.556Z,3.57
2017-12-30T14:24:17.140Z,3.90
2017-12-30T14:26:45.331Z,4.00
2017-12-30T14:29:13.770Z,4.40
2017-12-30T14:31:41.299Z,3.60
2017-12-30T14:34:09.435Z,3.50
2017-12-30T14:36:36.979Z,3.77
2017-12-30T14:39:05.382Z,3.30
2017-12-30T14:41:33.767Z,3.20
2017-12-30T14:44:02.326Z,3.33
2017-12-30T14:46:30.638Z,3.40
2017-12-30T14:48:58.228Z,2.80
2017-12-30T14:51:26.969Z,3.00
2017-12-30T14:53:57.123Z,3.17
2017-12-30T14:56:26.411Z,3.17
2017-12-30T14:58:55.261Z,3.00
2017-12-30T15:01:23.644Z,3.50
2017-12-30T15:03:52.014Z,2.83
2017-12-30T15:06:20.315Z,3.20
2017-12-30T15:08:48.733Z,2.93
2017-12-30T15:11:16.327Z,2.80
2017-12-30T15:13:43.905Z,3.03
2017-12-30T15:16:11.487Z,2.80
2017-12-30T15:18:40.268Z,3.37
2017-12-30T15:21:07.843Z,3.80
2017-12-30T15:23:36.402Z,3.50
2017-12-30T15:26:04.780Z,3.70
2017-12-30T15:28:35.106Z,3.43
2017-12-30T15:31:03.535Z,3.10
2017-12-30T15:33:31.911Z,3.47
2017-12-30T15:36:01.086Z,3.40
2017-12-30T15:38:29.659Z,3.20
2017-12-30T15:40:57.231Z,3.10
2017-12-30T15:43:25.670Z,3.50
2017-12-30T15:45:53.259Z,3.63
2017-12-30T15:48:22.138Z,3.53
2017-12-30T15:50:49.728Z,3.57
2017-12-30T15:53:18.028Z,3.57
2017-12-30T15:55:46.377Z,4.07
2017-12-30T15:58:13.915Z,3.43
2017-12-30T16:00:41.501Z,3.37
2017-12-30T16:03:09.658Z,2.87
2017-12-30T16:05:38.803Z,3.07
2017-12-30T16:08:06.915Z,3.37
2017-12-30T16:10:35.256Z,3.70
2017-12-30T16:13:03.490Z,3.73
2017-12-30T16:15:32.247Z,3.40
2017-12-30T16:17:59.781Z,4.13
2017-12-30T16:20:27.361Z,2.97
2017-12-30T16:22:56.898Z,2.80
2017-12-30T16:25:25.253Z,3.90
2017-12-30T16:27:54.057Z,3.90
2017-12-30T16:30:23.099Z,3.30
2017-12-30T16:32:51.431Z,3.27
2017-12-30T16:35:20.238Z,3.40
2017-12-30T16:37:47.787Z,6.10
2017-12-30T16:40:15.380Z,3.50
2017-12-30T16:42:43.796Z,3.40
2017-12-30T16:45:12.231Z,4.40
2017-12-30T16:47:40.966Z,4.63
2017-12-30T16:50:09.402Z,4.37
2017-12-30T16:52:36.993Z,4.10
2017-12-30T16:55:07.534Z,4.13
2017-12-30T16:57:36.843Z,4.03
2017-12-30T17:00:05.942Z,4.50
2017-12-30T17:02:35.137Z,3.80
2017-12-30T17:05:03.315Z,3.87
2017-12-30T17:07:30.871Z,3.53
2017-12-30T17:09:58.407Z,2.90
2017-12-30T17:12:26.866Z,3.63
2017-12-30T17:14:54.443Z,3.53
2017-12-30T17:17:21.980Z,3.63
2017-12-30T17:19:50.436Z,3.23
2017-12-30T17:22:19.421Z,3.87
2017-12-30T17:24:47.902Z,4.40
2017-12-30T17:27:15.481Z,3.03
2017-12-30T17:29:43.025Z,3.53
2017-12-30T17:32:10.590Z,4.20
2017-12-30T17:34:38.778Z,4.90
2017-12-30T17:37:06.363Z,3.37
2017-12-30T17:39:35.796Z,3.57
2017-12-30T17:42:03.902Z,6.87
2017-12-30T17:44:32.344Z,4.60
2017-12-30T17:46:59.920Z,3.83
2017-12-30T17:49:28.048Z,4.30
2017-12-30T17:51:55.670Z,3.63
2017-12-30T17:54:24.149Z,4.23
2017-12-30T17:56:53.493Z,7.13
2017-12-30T17:59:21.633Z,3.30
2017-12-30T18:01:49.254Z,3.20
2017-12-30T18:04:20.481Z,3.80
2017-12-30T18:06:49.575Z,3.27
2017-12-30T18:09:18.893Z,4.10
2017-12-30T18:11:47.278Z,3.80
2017-12-30T18:14:14.858Z,3.40
2017-12-30T18:16:44.233Z,3.90
2017-12-30T18:19:12.310Z,3.23
2017-12-30T18:21:39.890Z,3.70
2017-12-30T18:24:07.501Z,3.70
2017-12-30T18:26:35.093Z,3.30
2017-12-30T18:29:04.659Z,3.50
2017-12-30T18:31:33.259Z,3.40
2017-12-30T18:34:01.695Z,3.40
2017-12-30T18:36:30.049Z,3.20
2017-12-30T18:38:58.254Z,3.47
2017-12-30T18:41:26.626Z,3.53
2017-12-30T18:43:55.445Z,3.60
2017-12-30T18:46:25.859Z,3.50
2017-12-30T18:48:53.496Z,5.53
2017-12-30T18:51:22.416Z,4.40
2017-12-30T18:53:50.028Z,3.60
2017-12-30T18:56:18.607Z,3.70
2017-12-30T18:58:47.170Z,3.93
2017-12-30T19:01:15.524Z,3.33
2017-12-30T19:03:44.007Z,2.97
2017-12-30T19:06:12.533Z,3.03
2017-12-30T19:08:42.090Z,3.37
2017-12-30T19:11:13.780Z,3.43
2017-12-30T19:13:42.283Z,3.17
2017-12-30T19:16:09.862Z,2.80
2017-12-30T19:18:38.197Z,3.50
2017-12-30T19:21:09.162Z,2.80
2017-12-30T19:23:37.376Z,3.20
2017-12-30T19:26:04.958Z,2.70
2017-12-30T19:28:33.529Z,3.50
2017-12-30T19:31:01.129Z,3.43
2017-12-30T19:33:31.626Z,2.87
2017-12-30T19:35:59.974Z,3.07
2017-12-30T19:38:27.607Z,2.90
2017-12-30T19:40:56.058Z,2.80
2017-12-30T19:43:28.239Z,3.20
2017-12-30T19:45:55.828Z,3.40
2017-12-30T19:48:24.262Z,3.00
2017-12-30T19:50:53.154Z,2.90
2017-12-30T19:53:21.665Z,3.20
2017-12-30T19:55:49.244Z,2.90
2017-12-30T19:58:17.800Z,3.10
2017-12-30T20:00:45.978Z,3.20
2017-12-30T20:03:14.438Z,2.70
2017-12-30T20:05:42.910Z,2.70
2017-12-30T20:08:10.551Z,2.90
2017-12-30T20:10:38.906Z,2.93
2017-12-30T20:13:09.391Z,3.00
2017-12-30T20:15:37.679Z,3.10
2017-12-30T20:18:06.888Z,3.40
2017-12-30T20:20:34.476Z,3.10
2017-12-30T20:23:03.078Z,4.60
2017-12-30T20:25:31.590Z,3.00
2017-12-30T20:27:59.235Z,2.90
2017-12-30T20:30:27.597Z,3.03
2017-12-30T20:32:56.869Z,3.03
2017-12-30T20:35:26.610Z,3.00
2017-12-30T20:37:54.242Z,3.00
2017-12-30T20:40:22.830Z,3.63
2017-12-30T20:42:51.250Z,3.00
2017-12-30T20:45:19.702Z,3.13
2017-12-30T20:47:48.275Z,5.20
2017-12-30T20:50:16.271Z,3.90
2017-12-30T20:52:43.877Z,4.17
2017-12-30T20:55:12.275Z,3.90
2017-12-30T20:57:39.897Z,3.47
2017-12-30T21:00:08.510Z,3.70
2017-12-30T21:02:36.122Z,5.93
2017-12-30T21:05:04.462Z,5.67
2017-12-30T21:07:32.820Z,3.57
2017-12-30T21:10:00.475Z,4.80
2017-12-30T21:12:28.499Z,4.50
2017-12-30T21:14:58.010Z,7.23
2017-12-30T21:17:26.378Z,10.40
2017-12-30T21:19:54.026Z,4.87
2017-12-30T21:22:22.100Z,8.97
2017-12-30T21:24:50.611Z,5.67
2017-12-30T21:27:19.265Z,3.30
2017-12-30T21:29:46.925Z,8.57
2017-12-30T21:32:15.455Z,6.97
2017-12-30T21:34:43.094Z,7.17
2017-12-30T21:37:12.154Z,10.30
2017-12-30T21:39:42.394Z,4.50
2017-12-30T21:42:10.050Z,4.97
2017-12-30T21:44:37.678Z,10.07
2017-12-30T21:47:06.055Z,9.40
2017-12-30T21:49:35.016Z,9.70
2017-12-30T21:52:03.412Z,9.27
2017-12-30T21:54:30.992Z,5.60
2017-12-30T21:56:59.153Z,4.50
2017-12-30T21:59:27.359Z,7.90
2017-12-30T22:01:54.970Z,8.40
2017-12-30T22:04:23.216Z,12.57
2017-12-30T22:06:50.815Z,10.60
2017-12-30T22:09:19.050Z,7.40
2017-12-30T22:11:46.677Z,11.00
2017-12-30T22:14:14.320Z,8.20
2017-12-30T22:16:42.815Z,4.50
2017-12-30T22:19:10.434Z,4.80
2017-12-30T22:21:39.612Z,9.37
2017-12-30T22:24:08.086Z,7.90
2017-12-30T22:26:36.243Z,9.87
2017-12-30T22:29:03.932Z,6.90
2017-12-30T22:31:32.119Z,13.00
2017-12-30T22:34:00.702Z,16.90
2017-12-30T22:36:28.334Z,9.30
2017-12-30T22:38:55.920Z,14.87
2017-12-30T22:41:24.391Z,9.97
2017-12-30T22:43:55.457Z,11.13
2017-12-30T22:46:23.121Z,10.97
2017-12-30T22:48:50.722Z,13.13
2017-12-30T22:51:18.372Z,19.67
2017-12-30T22:53:45.975Z,13.20
2017-12-30T22:56:13.598Z,11.00
2017-12-30T22:58:41.475Z,9.33
2017-12-30T23:01:09.983Z,6.57
2017-12-30T23:03:37.587Z,15.10
2017-12-30T23:06:06.093Z,8.60
2017-12-30T23:08:34.549Z,15.63
2017-12-30T23:11:03.452Z,12.40
2017-12-30T23:13:32.272Z,8.47
2017-12-30T23:15:59.895Z,12.00
2017-12-30T23:18:27.542Z,8.90
2017-12-30T23:20:56.005Z,17.40
2017-12-30T23:23:24.000Z,7.07
2017-12-30T23:25:52.843Z,10.80
2017-12-30T23:28:21.748Z,10.43
2017-12-30T23:30:50.162Z,8.67
2017-12-30T23:33:18.952Z,8.90
2017-12-30T23:35:47.319Z,11.50
2017-12-30T23:38:15.936Z,15.43
2017-12-30T23:40:45.203Z,14.00
2017-12-30T23:43:14.035Z,12.20
2017-12-30T23:45:41.654Z,12.93
2017-12-30T23:48:09.279Z,11.80
2017-12-30T23:50:37.861Z,15.90
2017-12-30T23:53:05.493Z,15.70
2017-12-30T23:55:33.378Z,12.60
2017-12-30T23:58:01.024Z,16.83
